Todd, Minnesota
Current Conditions -  °F | °C
As of 9:53 PM on Wednesday 28 Jan 2015 (Local Time) from KPKD Reporting Station
Overcast Overcast  
Wind Chill: 23°   Ceiling: 900
Heat Index: 32°   Visibility: 8mi
Dew Point: 31°   Wind: 13mph
Humidity: 96%   Direction: 340°NNW
Pressure: 29.85"   Gusts: NA
Location:  46.9966°N, 95.0029°W
Report Text: KPKD 290353Z AUTO 34011KT 8SM BKN009 OVC013 00/M01 A2985 RMK AO2 CIG 005V012 SLP128 I1001 T00001006
Loading
Personal Weather Stations






























Interactive Weather Map New forecast layout! Learn more

10-Day Weather Forecast

Advertisements
Track Severe Weather on mobile